Time;durP1;ratioP1;P1;durP2;ratioP2;P2;SDS_P1;SDS_P2;PMS_P1;PMS_P2;Temp;Humidity;BMP_temperature;BMP_pressure;BME280_temperature;BME280_humidity;BME280_pressure;Samples;Min_cycle;Max_cycle;Signal;HPM_P1;HPM_P2
2021/06/10 00:00:08;;;;;;;7.47;2.40;;;19.30;99.90;;;;;;4100930;28;20177;-85
2021/06/10 00:02:12;;;;;;;6.65;2.72;;;19.60;99.90;;;;;;4117359;28;20268;-86
2021/06/10 00:04:13;;;;;;;5.72;2.28;;;19.70;99.90;;;;;;4117347;28;20170;-85
2021/06/10 00:06:13;;;;;;;7.22;2.70;;;19.70;99.90;;;;;;4117336;28;20194;-86
2021/06/10 00:08:15;;;;;;;6.03;2.72;;;19.70;99.90;;;;;;4100303;28;20722;-86
2021/06/10 00:10:18;;;;;;;4.78;2.70;;;19.60;99.90;;;;;;4101204;28;20627;-89
2021/06/10 00:12:19;;;;;;;3.85;2.53;;;19.50;99.90;;;;;;4118193;28;20579;-85
2021/06/10 00:14:20;;;;;;;3.00;2.30;;;19.30;99.90;;;;;;4116884;28;20178;-85
2021/06/10 00:16:20;;;;;;;7.43;3.05;;;19.10;99.90;;;;;;4117015;28;20181;-86
2021/06/10 00:18:21;;;;;;;6.28;2.70;;;19.00;99.90;;;;;;4100747;28;20210;-85
2021/06/10 00:20:24;;;;;;;7.82;2.53;;;18.90;99.90;;;;;;4100893;28;20195;-85
2021/06/10 00:22:25;;;;;;;4.82;3.10;;;18.90;99.90;;;;;;4100667;28;20201;-85
2021/06/10 00:24:26;;;;;;;5.82;2.85;;;18.70;99.90;;;;;;4100761;29;20277;-85
2021/06/10 00:26:27;;;;;;;4.60;2.63;;;18.80;99.90;;;;;;4116856;28;20263;-86
2021/06/10 00:28:27;;;;;;;4.03;3.40;;;18.90;99.90;;;;;;4116562;28;20281;-84
2021/06/10 00:30:28;;;;;;;5.95;4.15;;;19.00;99.90;;;;;;4116224;28;20233;-84
2021/06/10 00:32:29;;;;;;;9.13;4.25;;;19.00;99.90;;;;;;4116092;28;20202;-84
2021/06/10 00:34:30;;;;;;;6.93;3.65;;;19.20;99.90;;;;;;4116484;28;20650;-85
2021/06/10 00:36:31;;;;;;;9.05;3.70;;;19.10;99.90;;;;;;4116448;28;20689;-85
2021/06/10 00:38:32;;;;;;;5.80;3.67;;;19.30;99.90;;;;;;4116548;28;20180;-84
2021/06/10 00:40:34;;;;;;;5.43;3.25;;;19.30;99.90;;;;;;4116227;28;20264;-84
2021/06/10 00:42:36;;;;;;;5.75;3.80;;;19.10;99.90;;;;;;4116412;28;20238;-84
2021/06/10 00:44:37;;;;;;;4.90;3.60;;;19.10;99.90;;;;;;4117499;28;20654;-84
2021/06/10 00:46:37;;;;;;;8.73;3.53;;;19.20;99.90;;;;;;4100294;28;20183;-84
2021/06/10 00:48:39;;;;;;;7.85;3.70;;;19.10;99.90;;;;;;4116291;28;20214;-84
2021/06/10 00:50:43;;;;;;;9.02;3.47;;;19.00;99.90;;;;;;4100267;28;20174;-84
2021/06/10 00:52:46;;;;;;;7.05;3.60;;;19.00;99.90;;;;;;4115793;28;20221;-84
2021/06/10 00:54:46;;;;;;;8.32;3.17;;;18.90;99.90;;;;;;4099851;28;20295;-84
2021/06/10 00:56:48;;;;;;;5.75;3.60;;;18.70;99.90;;;;;;4115973;28;20175;-84
2021/06/10 00:58:49;;;;;;;7.13;3.40;;;18.50;99.90;;;;;;4100234;28;20195;-84
2021/06/10 01:00:51;;;;;;;5.13;3.25;;;18.50;99.90;;;;;;4115991;28;20188;-84
2021/06/10 01:02:52;;;;;;;6.95;3.58;;;18.60;99.90;;;;;;4099960;28;20194;-84
2021/06/10 01:04:53;;;;;;;4.75;3.25;;;18.60;99.90;;;;;;4100168;28;20187;-84
2021/06/10 01:07:15;;;;;;;5.70;3.30;;;18.60;99.90;;;;;;4100046;29;20185;-84
2021/06/10 01:09:25;;;;;;;7.50;3.65;;;18.50;99.90;;;;;;4115926;28;20551;-85
2021/06/10 01:11:43;;;;;;;6.10;3.70;;;18.40;99.90;;;;;;4099834;28;20175;-84
2021/06/10 01:14:05;;;;;;;7.22;3.90;;;18.50;99.90;;;;;;4115765;28;20190;-84
2021/06/10 01:16:08;;;;;;;13.48;7.25;;;18.10;99.90;;;;;;4099760;28;20179;-84
2021/06/10 01:18:12;;;;;;;17.48;7.80;;;17.80;99.90;;;;;;4117138;28;20166;-84
2021/06/10 01:20:26;;;;;;;14.68;7.13;;;17.50;99.90;;;;;;4099662;28;20206;-84
2021/06/10 01:22:26;;;;;;;14.27;6.80;;;17.40;99.90;;;;;;4115729;28;20230;-84
2021/06/10 01:25:02;;;;;;;15.05;7.50;;;17.40;99.90;;;;;;4100021;28;20175;-84
2021/06/10 01:27:22;;;;;;;11.70;6.40;;;17.40;99.90;;;;;;4115639;28;20185;-84
2021/06/10 01:29:23;;;;;;;12.10;6.47;;;17.40;99.90;;;;;;4099619;28;20216;-84
2021/06/10 01:31:25;;;;;;;11.10;6.13;;;17.60;99.90;;;;;;4115732;28;20558;-84
2021/06/10 01:33:31;;;;;;;9.52;6.85;;;17.70;99.90;;;;;;4115826;28;20171;-84
2021/06/10 01:35:35;;;;;;;12.20;6.72;;;17.70;99.90;;;;;;4099637;28;20599;-84
2021/06/10 01:37:37;;;;;;;9.05;6.38;;;17.90;99.90;;;;;;4115693;28;20631;-84
2021/06/10 01:39:38;;;;;;;10.43;6.60;;;17.80;99.90;;;;;;4099603;28;20221;-83
2021/06/10 01:41:41;;;;;;;10.57;5.97;;;17.70;99.90;;;;;;4099586;28;20202;-83
2021/06/10 01:43:44;;;;;;;9.88;6.88;;;17.60;99.90;;;;;;4116292;28;20269;-83
2021/06/10 01:45:49;;;;;;;13.55;7.75;;;17.50;99.90;;;;;;4099541;28;20171;-84
2021/06/10 01:47:50;;;;;;;10.07;7.63;;;17.40;99.90;;;;;;4099343;28;20206;-84
2021/06/10 01:49:53;;;;;;;13.60;8.27;;;17.40;99.90;;;;;;4099712;28;20656;-84
2021/06/10 01:51:54;;;;;;;14.13;9.20;;;17.20;99.90;;;;;;4099593;28;20195;-84
2021/06/10 01:53:57;;;;;;;11.65;8.35;;;17.10;99.90;;;;;;4115500;28;20196;-84
2021/06/10 01:56:00;;;;;;;12.32;8.30;;;17.10;99.90;;;;;;4116556;28;20177;-83
2021/06/10 01:58:01;;;;;;;12.73;9.10;;;17.20;99.90;;;;;;4115422;28;20178;-84
2021/06/10 02:00:06;;;;;;;16.38;9.07;;;17.40;99.90;;;;;;4099511;28;20628;-84
2021/06/10 02:02:07;;;;;;;15.30;9.30;;;17.50;99.90;;;;;;4115840;28;20190;-85
2021/06/10 02:04:10;;;;;;;18.95;9.15;;;17.70;99.90;;;;;;4115513;28;20169;-84
2021/06/10 02:06:11;;;;;;;12.30;9.48;;;17.80;99.90;;;;;;4099523;28;20179;-88
2021/06/10 02:08:14;;;;;;;14.55;9.98;;;17.80;99.90;;;;;;4099412;29;20269;-84
2021/06/10 02:10:21;;;;;;;12.40;9.57;;;17.90;99.90;;;;;;4115431;28;20182;-86
2021/06/10 02:12:22;;;;;;;12.13;9.40;;;17.90;99.90;;;;;;4115165;28;20197;-85
2021/06/10 02:14:23;;;;;;;12.25;10.00;;;17.90;99.90;;;;;;4115190;28;20178;-84
2021/06/10 02:16:26;;;;;;;14.13;9.73;;;17.90;99.90;;;;;;4115266;28;20178;-84
2021/06/10 02:18:27;;;;;;;15.63;10.32;;;17.90;99.90;;;;;;4099343;28;20167;-85
2021/06/10 02:20:28;;;;;;;13.55;10.38;;;17.90;99.90;;;;;;4114980;28;20584;-84
2021/06/10 02:22:29;;;;;;;12.82;10.30;;;17.80;99.90;;;;;;4099503;29;20555;-84
2021/06/10 02:24:29;;;;;;;16.10;9.77;;;17.90;99.90;;;;;;4115347;28;20241;-84
2021/06/10 02:26:30;;;;;;;13.00;10.38;;;17.90;99.90;;;;;;4099223;28;20628;-85
2021/06/10 02:28:31;;;;;;;12.32;9.82;;;18.00;99.90;;;;;;4099187;28;20228;-84
2021/06/10 02:30:34;;;;;;;14.50;9.80;;;18.00;99.90;;;;;;4099012;28;20175;-83
2021/06/10 02:32:35;;;;;;;12.30;9.80;;;18.10;99.90;;;;;;4118288;28;20198;-85
2021/06/10 02:34:36;;;;;;;13.50;9.77;;;18.00;99.90;;;;;;4102352;28;20699;-85
2021/06/10 02:36:40;;;;;;;13.10;9.52;;;17.90;99.90;;;;;;4102418;28;20189;-84
2021/06/10 02:38:48;;;;;;;12.88;9.32;;;17.90;99.90;;;;;;4102036;28;20167;-84
2021/06/10 02:40:51;;;;;;;15.48;9.88;;;17.90;99.90;;;;;;4101994;28;20202;-85
2021/06/10 02:42:54;;;;;;;12.63;10.10;;;17.90;99.90;;;;;;4102002;28;20187;-84
2021/06/10 02:44:55;;;;;;;10.25;8.85;;;17.90;99.90;;;;;;4119165;28;20177;-85
2021/06/10 02:46:56;;;;;;;14.13;8.55;;;17.80;99.90;;;;;;4118097;28;20654;-84
2021/06/10 02:48:58;;;;;;;10.13;8.60;;;17.70;99.90;;;;;;4118099;28;20237;-84
2021/06/10 02:50:59;;;;;;;10.90;8.98;;;17.60;99.90;;;;;;4101974;28;20171;-84
2021/06/10 02:53:01;;;;;;;10.57;8.63;;;17.50;99.90;;;;;;4117816;28;20241;-84
2021/06/10 02:55:03;;;;;;;12.25;8.80;;;17.40;99.90;;;;;;4118085;28;20198;-84
2021/06/10 02:57:06;;;;;;;10.75;8.90;;;17.40;99.90;;;;;;4101913;28;20179;-84
2021/06/10 02:59:08;;;;;;;13.40;8.60;;;17.30;99.90;;;;;;4101812;28;20258;-85
2021/06/10 03:01:10;;;;;;;15.48;9.13;;;17.30;99.90;;;;;;4117903;28;20182;-84
2021/06/10 03:03:13;;;;;;;12.77;9.32;;;17.20;99.90;;;;;;4101937;28;20178;-85
2021/06/10 03:05:15;;;;;;;13.63;9.55;;;17.10;99.90;;;;;;4117887;28;20248;-85
2021/06/10 03:07:18;;;;;;;11.48;9.07;;;17.10;99.90;;;;;;4117754;28;20194;-84
2021/06/10 03:09:21;;;;;;;16.80;9.40;;;17.10;99.90;;;;;;4101738;28;20221;-84
2021/06/10 03:11:23;;;;;;;10.25;8.73;;;17.10;99.90;;;;;;4117628;28;20265;-85
2021/06/10 03:13:24;;;;;;;16.77;9.23;;;17.10;99.90;;;;;;4117792;28;20197;-84
2021/06/10 03:15:27;;;;;;;12.00;9.07;;;17.10;99.90;;;;;;4117571;28;20177;-84
2021/06/10 03:17:28;;;;;;;10.20;8.73;;;17.10;99.90;;;;;;4117470;28;20217;-84
2021/06/10 03:19:29;;;;;;;10.95;9.50;;;17.10;99.90;;;;;;4117530;28;20178;-85
2021/06/10 03:21:31;;;;;;;16.38;9.10;;;17.20;99.90;;;;;;4101613;28;20175;-85
2021/06/10 03:23:32;;;;;;;13.10;9.32;;;17.20;99.90;;;;;;4101598;28;20182;-85
2021/06/10 03:25:34;;;;;;;12.68;9.07;;;17.20;99.90;;;;;;4117650;28;20253;-84
2021/06/10 03:27:36;;;;;;;12.98;10.23;;;17.20;99.90;;;;;;4101594;28;20182;-85
2021/06/10 03:29:37;;;;;;;15.48;10.18;;;17.10;99.90;;;;;;4101342;28;20222;-85
2021/06/10 03:31:39;;;;;;;14.75;9.55;;;17.10;99.90;;;;;;4101581;29;20260;-85
2021/06/10 03:33:40;;;;;;;12.43;9.48;;;17.10;99.90;;;;;;4101644;28;20183;-84
2021/06/10 03:35:42;;;;;;;16.42;10.00;;;17.20;99.90;;;;;;4101441;28;20245;-84
2021/06/10 03:37:43;;;;;;;12.98;10.25;;;17.20;99.90;;;;;;4101375;28;20186;-85
2021/06/10 03:39:46;;;;;;;12.73;9.93;;;17.10;99.90;;;;;;4101548;29;20170;-85
2021/06/10 03:41:48;;;;;;;16.80;10.05;;;17.10;99.90;;;;;;4101175;28;20238;-85
2021/06/10 03:43:49;;;;;;;12.85;9.48;;;17.10;99.90;;;;;;4101419;28;20217;-85
2021/06/10 03:45:51;;;;;;;12.10;9.32;;;17.00;99.90;;;;;;4101220;29;20198;-84
2021/06/10 03:47:52;;;;;;;11.30;8.95;;;17.00;99.90;;;;;;4117144;28;20261;-84
2021/06/10 03:49:53;;;;;;;15.15;9.30;;;16.90;99.90;;;;;;4101269;28;20572;-84
2021/06/10 03:51:54;;;;;;;16.35;9.60;;;16.90;99.90;;;;;;4117079;28;20205;-84
2021/06/10 03:53:55;;;;;;;13.70;8.80;;;16.90;99.90;;;;;;4101294;28;20179;-84
2021/06/10 03:55:56;;;;;;;11.98;8.93;;;16.90;99.90;;;;;;4117248;28;20302;-84
2021/06/10 03:57:57;;;;;;;15.15;9.07;;;17.00;99.90;;;;;;4116986;28;20719;-84
2021/06/10 03:59:57;;;;;;;14.63;9.20;;;17.00;99.90;;;;;;4100749;28;20536;-84
2021/06/10 04:01:58;;;;;;;13.75;8.68;;;17.00;99.90;;;;;;4100728;28;20195;-85
2021/06/10 04:03:59;;;;;;;12.35;8.90;;;17.10;99.90;;;;;;4100814;28;20167;-84
2021/06/10 04:06:01;;;;;;;13.48;8.23;;;17.10;99.90;;;;;;4100632;28;20194;-85
2021/06/10 04:08:02;;;;;;;10.60;7.88;;;17.20;99.90;;;;;;4100874;28;20580;-84
2021/06/10 04:10:05;;;;;;;12.23;8.07;;;17.20;99.90;;;;;;4116746;28;20190;-85
2021/06/10 04:12:07;;;;;;;12.00;8.50;;;17.20;99.90;;;;;;4100937;28;20281;-84
2021/06/10 04:14:08;;;;;;;11.18;8.70;;;17.40;99.90;;;;;;4116789;28;20206;-84
2021/06/10 04:16:09;;;;;;;15.93;8.20;;;17.40;99.90;;;;;;4116731;28;20170;-84
2021/06/10 04:18:17;;;;;;;10.30;8.30;;;17.40;99.90;;;;;;4100777;28;20250;-85
2021/06/10 04:20:18;;;;;;;9.80;7.70;;;17.50;99.90;;;;;;4100944;28;20603;-86
2021/06/10 04:22:18;;;;;;;13.45;7.88;;;17.60;99.90;;;;;;4100858;28;20287;-84
2021/06/10 04:24:19;;;;;;;11.57;7.90;;;17.60;99.90;;;;;;4100581;28;20178;-84
2021/06/10 04:26:20;;;;;;;10.65;8.25;;;17.70;99.90;;;;;;4100743;28;20258;-84
2021/06/10 04:28:21;;;;;;;13.23;8.02;;;17.70;99.90;;;;;;4100598;28;20227;-85
2021/06/10 04:30:22;;;;;;;10.57;7.05;;;17.80;99.90;;;;;;4116388;28;20296;-89
2021/06/10 04:32:22;;;;;;;19.42;8.60;;;17.80;99.90;;;;;;4100181;29;20764;-85
2021/06/10 04:34:23;;;;;;;12.07;8.45;;;17.80;99.90;;;;;;4116659;28;20189;-85
2021/06/10 04:36:24;;;;;;;12.25;9.07;;;17.90;99.90;;;;;;4100695;28;20174;-84
2021/06/10 04:38:25;;;;;;;18.75;8.18;;;17.90;99.90;;;;;;4116479;28;20178;-85
2021/06/10 04:40:25;;;;;;;16.30;8.48;;;17.90;99.90;;;;;;4100401;28;20730;-84
2021/06/10 04:42:26;;;;;;;19.67;9.70;;;18.00;99.90;;;;;;4116212;28;20540;-84
2021/06/10 04:44:27;;;;;;;12.77;9.43;;;18.00;99.90;;;;;;4100122;28;20191;-84
2021/06/10 04:46:27;;;;;;;16.80;9.40;;;18.00;99.90;;;;;;4100441;28;20202;-84
2021/06/10 04:48:29;;;;;;;16.90;9.18;;;18.10;99.90;;;;;;4116051;28;20209;-84
2021/06/10 04:50:31;;;;;;;18.63;10.38;;;18.20;99.90;;;;;;4116314;28;20227;-84
2021/06/10 04:52:32;;;;;;;13.55;9.27;;;18.20;99.90;;;;;;4100235;28;20194;-85
2021/06/10 04:54:34;;;;;;;22.00;10.15;;;18.20;99.90;;;;;;4099647;28;20589;-85
2021/06/10 04:56:35;;;;;;;15.20;8.63;;;18.20;99.90;;;;;;4100151;28;20258;-84
2021/06/10 04:58:35;;;;;;;10.80;8.40;;;18.20;99.90;;;;;;4116313;28;20170;-85
2021/06/10 05:00:38;;;;;;;13.25;8.60;;;18.20;99.90;;;;;;4100036;28;20171;-84
2021/06/10 05:02:39;;;;;;;9.80;7.68;;;18.30;99.90;;;;;;4116091;28;20216;-84
2021/06/10 05:04:40;;;;;;;14.63;8.07;;;18.20;99.90;;;;;;4100044;28;20175;-85
2021/06/10 05:06:41;;;;;;;9.10;7.68;;;18.20;99.90;;;;;;4100150;28;20211;-85
2021/06/10 05:08:41;;;;;;;9.77;8.23;;;18.30;99.90;;;;;;4116207;28;20594;-85
2021/06/10 05:10:42;;;;;;;9.52;7.82;;;18.20;99.90;;;;;;4100242;28;20174;-89
2021/06/10 05:12:43;;;;;;;12.27;8.27;;;18.10;99.90;;;;;;4116070;28;20701;-84
2021/06/10 05:14:44;;;;;;;11.07;7.72;;;18.20;99.90;;;;;;4099851;28;20175;-84
2021/06/10 05:16:47;;;;;;;13.00;7.50;;;18.20;99.90;;;;;;4099918;28;20179;-84
2021/06/10 05:18:48;;;;;;;11.38;7.45;;;18.30;99.90;;;;;;4099996;28;20183;-85
2021/06/10 05:20:49;;;;;;;7.88;6.65;;;18.30;99.90;;;;;;4115767;28;20181;-84
2021/06/10 05:22:49;;;;;;;8.88;7.00;;;18.20;99.90;;;;;;4099772;28;20220;-86
2021/06/10 05:24:50;;;;;;;10.95;6.78;;;18.30;99.90;;;;;;4099744;28;20178;-86
2021/06/10 05:26:51;;;;;;;9.73;6.53;;;18.30;99.90;;;;;;4115849;28;20227;-84
2021/06/10 05:28:51;;;;;;;6.32;5.55;;;18.40;99.90;;;;;;4115648;28;20264;-85
2021/06/10 05:30:52;;;;;;;10.23;4.97;;;18.40;99.90;;;;;;4099941;28;20183;-86
2021/06/10 05:32:54;;;;;;;8.88;4.50;;;18.40;99.90;;;;;;4099664;28;20205;-86
2021/06/10 05:34:55;;;;;;;8.82;4.47;;;18.40;99.90;;;;;;4099678;28;20174;-84
2021/06/10 05:36:55;;;;;;;5.30;3.47;;;18.40;99.90;;;;;;4099821;28;20170;-86
2021/06/10 05:38:56;;;;;;;6.28;3.42;;;18.30;99.90;;;;;;4099535;28;20194;-85
2021/06/10 05:40:57;;;;;;;8.05;3.47;;;18.30;99.90;;;;;;4099926;28;20639;-86
2021/06/10 05:42:58;;;;;;;6.78;2.97;;;18.30;99.90;;;;;;4099781;28;20773;-87
2021/06/10 05:44:58;;;;;;;8.88;2.92;;;18.30;99.90;;;;;;4099594;28;20179;-86
2021/06/10 05:46:59;;;;;;;11.23;2.80;;;18.30;99.90;;;;;;4099642;29;20187;-84
2021/06/10 05:49:00;;;;;;;19.00;3.28;;;18.30;99.90;;;;;;4099634;28;20198;-86
2021/06/10 05:51:01;;;;;;;8.13;2.88;;;18.30;99.90;;;;;;4099856;28;20654;-85
2021/06/10 05:53:01;;;;;;;11.48;3.08;;;18.20;99.90;;;;;;4099765;28;20229;-87
2021/06/10 05:55:03;;;;;;;14.80;2.92;;;18.20;99.90;;;;;;4099630;28;20178;-85
2021/06/10 05:57:04;;;;;;;13.43;2.75;;;18.30;99.90;;;;;;4099699;28;20263;-85
2021/06/10 05:59:04;;;;;;;10.73;2.90;;;18.40;99.90;;;;;;4099517;28;20198;-86
2021/06/10 06:01:05;;;;;;;8.82;2.67;;;18.40;99.90;;;;;;4115363;28;20178;-86
2021/06/10 06:03:07;;;;;;;9.35;2.90;;;18.40;99.90;;;;;;4099906;28;20282;-85
2021/06/10 06:05:08;;;;;;;10.93;2.70;;;18.40;99.90;;;;;;4099582;28;20171;-84
2021/06/10 06:07:09;;;;;;;11.00;2.58;;;18.50;99.90;;;;;;4102347;28;20265;-85
2021/06/10 06:09:10;;;;;;;11.15;2.50;;;18.60;99.90;;;;;;4102721;28;20372;-84
2021/06/10 06:11:10;;;;;;;8.15;2.30;;;18.70;99.90;;;;;;4118950;28;20174;-86
2021/06/10 06:13:11;;;;;;;9.52;2.30;;;18.70;99.90;;;;;;4102707;28;20198;-86
2021/06/10 06:15:12;;;;;;;9.73;2.20;;;18.70;99.90;;;;;;4118474;28;20181;-85
2021/06/10 06:17:13;;;;;;;4.80;2.10;;;18.80;99.90;;;;;;4102673;28;20198;-86
2021/06/10 06:19:15;;;;;;;4.32;1.90;;;19.10;99.90;;;;;;4102740;28;20571;-85
2021/06/10 06:21:16;;;;;;;4.35;2.30;;;19.20;99.90;;;;;;4118525;28;20610;-83
2021/06/10 06:23:17;;;;;;;6.15;2.15;;;19.10;99.90;;;;;;4118463;28;20162;-85
2021/06/10 06:25:19;;;;;;;4.25;2.15;;;19.20;99.90;;;;;;4102440;29;20508;-85
2021/06/10 06:27:20;;;;;;;4.38;2.45;;;19.10;99.90;;;;;;4102553;29;20183;-85
2021/06/10 06:29:20;;;;;;;4.70;2.45;;;19.20;99.90;;;;;;4102226;28;20206;-84
2021/06/10 06:31:21;;;;;;;4.22;2.17;;;19.40;99.90;;;;;;4102237;28;20698;-85
2021/06/10 06:33:22;;;;;;;13.68;2.40;;;19.50;99.90;;;;;;4102293;28;20197;-84
2021/06/10 06:35:23;;;;;;;3.83;2.35;;;19.70;99.90;;;;;;4102510;28;20238;-85
2021/06/10 06:37:23;;;;;;;4.65;2.50;;;19.80;99.90;;;;;;4118529;28;20189;-87
2021/06/10 06:39:24;;;;;;;4.05;2.00;;;19.70;99.90;;;;;;4102710;28;20180;-85
2021/06/10 06:41:25;;;;;;;4.53;2.33;;;19.80;99.90;;;;;;4102327;29;20195;-87
2021/06/10 06:43:30;;;;;;;9.55;2.38;;;19.70;99.90;;;;;;4118095;28;20194;-84
2021/06/10 06:45:35;;;;;;;5.60;2.30;;;19.80;99.90;;;;;;4119415;28;20577;-85
2021/06/10 06:47:36;;;;;;;3.70;1.90;;;19.90;99.90;;;;;;4118223;28;20170;-86
2021/06/10 06:49:37;;;;;;;3.47;1.67;;;20.00;99.90;;;;;;4117978;28;20265;-84
2021/06/10 06:51:37;;;;;;;5.07;1.90;;;20.10;99.90;;;;;;4118258;28;20285;-84
2021/06/10 06:53:38;;;;;;;2.45;1.58;;;20.30;99.90;;;;;;4102131;28;20623;-86
2021/06/10 06:55:40;;;;;;;5.43;1.90;;;20.40;99.90;;;;;;4118023;28;20178;-85
2021/06/10 06:57:41;;;;;;;7.28;1.98;;;20.40;99.90;;;;;;4117939;28;20167;-86
2021/06/10 06:59:41;;;;;;;2.83;1.90;;;20.30;99.90;;;;;;4117853;28;20208;-86
2021/06/10 07:01:42;;;;;;;5.45;2.30;;;20.20;99.90;;;;;;4101986;28;20195;-85
2021/06/10 07:03:43;;;;;;;2.90;1.85;;;20.30;99.90;;;;;;4102238;28;20175;-86
2021/06/10 07:05:43;;;;;;;2.72;1.75;;;20.40;99.90;;;;;;4117928;28;20253;-85
2021/06/10 07:07:44;;;;;;;2.22;1.80;;;20.60;99.90;;;;;;4118051;28;20186;-87
2021/06/10 07:09:45;;;;;;;5.75;1.98;;;20.90;99.90;;;;;;4117820;28;20694;-85
2021/06/10 07:11:46;;;;;;;2.60;1.55;;;21.20;99.90;;;;;;4101705;28;20226;-84
2021/06/10 07:13:46;;;;;;;6.07;1.67;;;22.00;99.90;;;;;;4102202;29;20628;-88
2021/06/10 07:15:47;;;;;;;4.53;1.90;;;23.40;99.90;;;;;;4117775;28;20555;-85
2021/06/10 07:17:48;;;;;;;3.80;1.70;;;25.30;99.90;;;;;;4117491;28;20171;-85
2021/06/10 07:19:51;;;;;;;4.40;1.48;;;27.40;99.90;;;;;;4118048;28;20174;-88
2021/06/10 07:21:52;;;;;;;4.18;1.60;;;28.90;99.90;;;;;;4101789;28;20198;-88
2021/06/10 07:23:53;;;;;;;9.60;1.70;;;30.20;99.90;;;;;;4117914;28;20186;-88
2021/06/10 07:25:54;;;;;;;2.45;1.60;;;31.50;99.90;;;;;;4101955;28;20747;-88
2021/06/10 07:27:55;;;;;;;4.05;1.90;;;31.80;99.90;;;;;;4118049;28;20225;-89
2021/06/10 07:29:58;;;;;;;2.72;1.55;;;32.40;99.90;;;;;;4101734;28;20207;-89
2021/06/10 07:31:58;;;;;;;4.18;2.08;;;32.80;99.90;;;;;;4101831;28;20225;-89
2021/06/10 07:34:02;;;;;;;3.00;1.90;;;33.00;99.90;;;;;;4118095;28;20170;-89
2021/06/10 07:36:03;;;;;;;4.05;1.95;;;33.20;99.90;;;;;;4117973;28;20221;-89
2021/06/10 07:38:04;;;;;;;5.30;2.28;;;33.10;99.90;;;;;;4102136;28;20246;-89
2021/06/10 07:40:06;;;;;;;2.95;1.80;;;32.70;99.90;;;;;;4117845;28;20201;-88
2021/06/10 07:42:09;;;;;;;5.68;1.95;;;33.00;99.90;;;;;;4117805;28;20532;-88
2021/06/10 07:44:09;;;;;;;7.30;2.47;;;33.80;99.90;;;;;;4102294;28;20179;-88
2021/06/10 07:46:10;;;;;;;4.72;1.90;;;34.30;99.90;;;;;;4117756;28;20166;-89
2021/06/10 07:48:11;;;;;;;5.82;2.53;;;35.10;99.90;;;;;;4101831;28;20189;-89
2021/06/10 07:50:12;;;;;;;8.90;2.38;;;35.30;99.90;;;;;;4101699;28;20174;-88
2021/06/10 07:52:13;;;;;;;4.90;2.05;;;35.30;99.90;;;;;;4101797;28;20291;-89
2021/06/10 07:54:13;;;;;;;6.60;1.95;;;34.20;99.90;;;;;;4117570;28;20645;-88
2021/06/10 07:56:14;;;;;;;9.07;1.80;;;33.90;99.90;;;;;;4101618;28;20521;-89
2021/06/10 07:58:15;;;;;;;10.07;1.48;;;33.80;99.90;;;;;;4101548;28;20188;-88
2021/06/10 08:00:17;;;;;;;6.80;1.70;;;33.10;99.90;;;;;;4101377;28;20186;-89
2021/06/10 08:02:18;;;;;;;6.97;2.03;;;32.20;99.90;;;;;;4117133;28;20189;-88
2021/06/10 08:04:18;;;;;;;15.68;2.50;;;31.70;99.90;;;;;;4101439;28;20186;-89
2021/06/10 08:06:20;;;;;;;11.57;2.10;;;31.40;99.90;;;;;;4117267;28;20257;-88
2021/06/10 08:08:21;;;;;;;13.02;2.47;;;31.10;99.90;;;;;;4101343;28;20176;-88
2021/06/10 08:10:22;;;;;;;8.88;1.95;;;30.60;99.90;;;;;;4117206;28;20210;-89
2021/06/10 08:12:23;;;;;;;11.43;2.45;;;30.40;99.90;;;;;;4101174;28;20379;-88
2021/06/10 08:14:24;;;;;;;18.02;3.20;;;30.70;99.90;;;;;;4100966;28;20686;-88
2021/06/10 08:16:25;;;;;;;7.18;2.60;;;31.20;99.90;;;;;;4100993;28;20640;-89
2021/06/10 08:18:27;;;;;;;9.05;3.15;;;32.00;99.90;;;;;;4117019;28;20194;-89
2021/06/10 08:20:29;;;;;;;9.30;4.80;;;32.60;99.90;;;;;;4101322;28;20190;-88
2021/06/10 08:22:30;;;;;;;3.63;2.63;;;33.20;99.90;;;;;;4101145;28;20612;-89
2021/06/10 08:24:31;;;;;;;5.82;2.70;;;33.80;99.90;;;;;;4100948;28;20249;-90
2021/06/10 08:26:31;;;;;;;8.57;3.53;;;33.70;99.90;;;;;;4100900;29;20163;-89
2021/06/10 08:28:33;;;;;;;6.47;2.63;;;34.20;99.90;;;;;;4116252;28;20197;-88
2021/06/10 08:30:33;;;;;;;6.55;3.30;;;33.10;99.90;;;;;;4100983;28;20169;-89
2021/06/10 08:32:35;;;;;;;6.30;3.10;;;33.20;99.90;;;;;;4117078;28;20296;-89
2021/06/10 08:34:35;;;;;;;10.02;2.90;;;33.80;99.90;;;;;;4101138;28;20178;-88
2021/06/10 08:36:36;;;;;;;8.77;3.22;;;34.50;99.90;;;;;;4117067;28;20291;-90
2021/06/10 08:38:37;;;;;;;10.27;3.30;;;35.10;99.90;;;;;;4101107;28;20221;-94
2021/06/10 08:40:39;;;;;;;5.72;2.92;;;34.90;99.90;;;;;;4101061;28;20181;-89
2021/06/10 08:42:41;;;;;;;8.40;2.92;;;34.50;99.90;;;;;;4101976;28;20640;-89
2021/06/10 08:44:43;;;;;;;4.28;2.70;;;34.80;99.90;;;;;;4100735;28;20218;-89
2021/06/10 08:46:47;;;;;;;5.85;2.55;;;34.80;99.90;;;;;;4116911;28;20165;-89
2021/06/10 08:48:50;;;;;;;7.50;2.95;;;35.00;99.90;;;;;;4116959;28;20217;-89
2021/06/10 08:50:52;;;;;;;4.00;2.72;;;35.10;99.90;;;;;;4116908;28;20173;-89
2021/06/10 08:52:57;;;;;;;7.35;2.70;;;35.00;99.90;;;;;;4101420;28;20206;-88
2021/06/10 08:54:58;;;;;;;6.47;2.60;;;34.30;99.90;;;;;;4116933;28;20176;-89
2021/06/10 08:57:00;;;;;;;9.13;3.20;;;34.50;99.90;;;;;;4100604;28;20261;-91
2021/06/10 08:59:00;;;;;;;5.38;2.70;;;35.00;99.90;;;;;;4117451;28;20208;-90
2021/06/10 09:01:02;;;;;;;7.90;2.92;;;35.20;99.90;;;;;;4100601;28;20257;-91
2021/06/10 09:03:03;;;;;;;6.68;2.88;;;34.80;99.90;;;;;;4100559;28;20285;-88
2021/06/10 09:05:08;;;;;;;7.40;3.08;;;35.40;99.90;;;;;;4117005;28;20177;-89
2021/06/10 09:07:10;;;;;;;4.20;2.90;;;35.30;99.90;;;;;;4100505;28;20206;-90
2021/06/10 09:09:11;;;;;;;4.35;2.63;;;35.80;99.90;;;;;;4100636;28;20205;-88
2021/06/10 09:11:15;;;;;;;5.05;2.33;;;35.90;99.90;;;;;;4116774;28;20201;-90
2021/06/10 09:13:16;;;;;;;4.90;2.33;;;35.90;99.90;;;;;;4101086;28;20233;-91
2021/06/10 09:15:18;;;;;;;5.65;2.50;;;35.10;99.90;;;;;;4116532;28;20574;-89
2021/06/10 09:17:26;;;;;;;5.75;2.60;;;34.50;99.90;;;;;;4116354;28;20216;-89
2021/06/10 09:19:31;;;;;;;3.72;2.50;;;35.00;99.90;;;;;;4100465;28;20260;-89
2021/06/10 09:21:34;;;;;;;8.30;2.33;;;34.40;99.90;;;;;;4100280;28;20308;-88
2021/06/10 09:23:35;;;;;;;5.63;2.30;;;34.30;99.90;;;;;;4116467;28;20213;-89
2021/06/10 09:25:36;;;;;;;9.75;2.30;;;34.00;99.90;;;;;;4116478;28;20166;-89
2021/06/10 09:27:53;;;;;;;8.15;2.40;;;33.40;99.90;;;;;;4100543;28;20174;-94
2021/06/10 09:29:55;;;;;;;5.45;2.30;;;34.20;99.90;;;;;;4117774;28;20177;-89
2021/06/10 09:31:55;;;;;;;4.95;2.22;;;34.50;99.90;;;;;;4100489;28;20192;-88
2021/06/10 09:33:57;;;;;;;3.60;2.00;;;34.90;99.90;;;;;;4100010;28;20272;-89
2021/06/10 09:36:03;;;;;;;4.82;1.80;;;35.10;99.90;;;;;;4100244;28;20226;-90
2021/06/10 09:38:10;;;;;;;5.97;2.38;;;35.50;99.90;;;;;;4100365;28;20197;-90
2021/06/10 09:40:17;;;;;;;4.50;2.10;;;35.40;99.90;;;;;;4115958;28;20174;-90
2021/06/10 09:42:30;;;;;;;8.30;1.98;;;35.30;99.90;;;;;;4100245;28;20202;-89
2021/06/10 09:44:41;;;;;;;5.05;2.03;;;35.70;99.90;;;;;;4100002;28;20193;-89
2021/06/10 09:47:02;;;;;;;4.47;1.80;;;35.50;99.90;;;;;;4100178;28;20734;-89
2021/06/10 09:49:05;;;;;;;5.75;2.00;;;35.30;99.90;;;;;;4116181;28;20680;-89
2021/06/10 09:51:19;;;;;;;11.02;2.88;;;35.40;99.90;;;;;;4116386;28;20180;-90
2021/06/10 09:53:22;;;;;;;13.43;2.88;;;35.50;99.90;;;;;;4116204;28;20575;-89
2021/06/10 09:55:46;;;;;;;5.78;2.50;;;34.60;99.90;;;;;;4099812;28;20222;-87
2021/06/10 09:57:47;;;;;;;9.20;2.50;;;34.30;99.90;;;;;;4101404;28;20257;-90
2021/06/10 09:59:53;;;;;;;6.28;2.38;;;33.80;99.90;;;;;;4115900;28;20217;-90
2021/06/10 10:02:16;;;;;;;7.20;2.60;;;33.70;99.90;;;;;;4099899;28;20194;-89
2021/06/10 10:04:17;;;;;;;3.85;2.80;;;33.60;99.90;;;;;;4115948;28;20178;-89
2021/06/10 10:06:30;;;;;;;6.07;3.47;;;33.40;99.90;;;;;;4116040;28;20169;-91
2021/06/10 10:08:33;;;;;;;9.23;3.55;;;33.80;99.90;;;;;;4115768;28;20216;-89
2021/06/10 10:10:33;;;;;;;6.47;3.40;;;33.70;99.90;;;;;;4115986;28;20182;-91
2021/06/10 10:12:44;;;;;;;7.05;3.63;;;33.40;99.90;;;;;;4115573;28;20327;-88
2021/06/10 10:14:46;;;;;;;6.18;3.72;;;33.40;99.90;;;;;;4100143;28;20248;-90
2021/06/10 10:16:47;;;;;;;6.40;2.38;;;32.70;99.90;;;;;;4099677;28;20547;-89
2021/06/10 10:18:49;;;;;;;5.70;3.00;;;32.60;99.90;;;;;;4115790;28;20216;-90
2021/06/10 10:20:50;;;;;;;5.50;3.10;;;32.70;99.90;;;;;;4100122;28;20654;-89
2021/06/10 10:22:51;;;;;;;6.85;3.58;;;32.60;99.90;;;;;;4116966;28;20193;-89
2021/06/10 10:24:54;;;;;;;7.28;4.20;;;32.50;99.90;;;;;;4101968;28;20158;-89
2021/06/10 10:26:55;;;;;;;5.50;3.88;;;32.30;99.90;;;;;;4115858;28;20281;-89
2021/06/10 10:28:58;;;;;;;6.05;3.78;;;31.40;99.90;;;;;;4115972;28;20170;-88
2021/06/10 10:31:00;;;;;;;6.80;3.45;;;30.60;99.90;;;;;;4099660;28;20190;-88
2021/06/10 10:33:16;;;;;;;7.03;3.78;;;30.20;99.90;;;;;;4099599;28;20187;-89